Tobias Bolanos Internatio, Costa Rica

1:02 AM CST on July 24, 2017 (GMT -0600)
Carretera John F Kennedy | | Change Station

Elev 3395 ft 9.93 °N, 84.15 °W | Updated 3 minutes ago

Mostly Cloudy
Mostly Cloudy
77.0 °F
Feels Like 79 °F
N
0.6
Wind Variable Wind from South
Gusts 1.9 mph

Today
High -- | Low -- °F
--% Chance of Precip.
Yesterday
High -- | Low -- °F
Precip. -- in
Pressure 29.97 in
Visibility -9999.0 miles
Clouds
Heat Index 79 °F
Dew Point 65 °F
Humidity 65%
Rainfall 0.00 in
Snow Depth Not available.
5:25 AM 6:01 PM
New Moon, 1% visible
METAR MROC 240700Z 06004KT CAVOK 21/20 A2997 NOSIG
Pressure 29.97 in
Visibility -9999.0 miles
Clouds
Heat Index 79 °F
Dew Point 65 °F
Humidity 65%
Rainfall 0.00 in
Snow Depth Not available.
5:25 AM 6:01 PM
New Moon, 1% visible
METAR MROC 240700Z 06004KT CAVOK 21/20 A2997 NOSIG

Get Severe Weather Alerts

Thanks for signing up!

Be on the lookout for a verification email in your inbox.

You'll start receiving the daily forecast at 6 AM.

×

10-Day Weather Forecast

No radar image for this location.
×

Almanac

Astronomy

Jul. 24, 2017 Rise Set
Actual Time
Civil Twilight
Nautical Twilight
Astronomical Twilight
Moon
Length of Visible Light
Length of Day
Tomorrow will be .
, % of the Moon is Illuminated

Today's Extremes

Country Highs Country Lows

Community

WunderPhotos

Category 6

Welcome to Category 6. This is the collective home for Weather Underground's featured writeups by Dr. Jeff Masters (right), Bob Henson (left), Chris Burt, and other regular contributors.

Nearby

Air Quality

  Air Quality AQ Index Pollutant
Not available.

Snow Depth

Station Depth Elevation

Earthquake Activity

City Distance Mag. Time & Date
Minimum magnitude displayed is 2.5.

Coastal Water Temperatures

Place Temperature

Stations

Nearby Weather Stations

Station Location Temp. Windchill Dew Point Humidity Wind Precip. Elev Updated Type